createdAt,value
2022-10-21T00:01:00.726Z,0.78
2022-10-21T00:03:38.016Z,0.81
2022-10-21T00:06:07.238Z,0.85
2022-10-21T00:08:36.065Z,0.88
2022-10-21T00:11:06.657Z,0.91
2022-10-21T00:13:36.828Z,0.95
2022-10-21T00:16:08.916Z,0.95
2022-10-21T00:18:39.285Z,0.93
2022-10-21T00:21:14.579Z,0.87
2022-10-21T00:23:44.071Z,0.82
2022-10-21T00:26:14.153Z,0.78
2022-10-21T00:28:43.229Z,0.75
2022-10-21T00:31:13.882Z,0.70
2022-10-21T00:33:42.638Z,0.64
2022-10-21T00:36:15.480Z,0.58
2022-10-21T00:38:46.082Z,0.54
2022-10-21T00:41:15.843Z,0.51
2022-10-21T00:43:59.858Z,0.49
2022-10-21T00:46:37.493Z,0.48
2022-10-21T00:49:12.642Z,0.48
2022-10-21T00:51:42.248Z,0.50
2022-10-21T00:54:10.907Z,0.51
2022-10-21T00:56:44.653Z,0.52
2022-10-21T00:59:14.281Z,0.56
2022-10-21T01:01:42.706Z,0.58
2022-10-21T01:04:10.853Z,0.61
2022-10-21T01:06:40.248Z,0.63
2022-10-21T01:09:08.864Z,0.61
2022-10-21T01:11:44.443Z,0.58
2022-10-21T01:14:13.520Z,0.54
2022-10-21T01:16:54.852Z,0.50
2022-10-21T01:19:48.355Z,0.47
2022-10-21T01:22:54.122Z,0.43
2022-10-21T01:25:36.779Z,0.36
2022-10-21T01:28:28.772Z,0.28
2022-10-21T01:31:13.962Z,0.21
2022-10-21T01:33:46.995Z,0.15
2022-10-21T01:36:31.126Z,0.09
2022-10-21T01:39:07.474Z,0.03
2022-10-21T01:41:48.816Z,-0.02
2022-10-21T01:44:29.142Z,-0.07
2022-10-21T01:47:01.342Z,-0.11
2022-10-21T01:49:35.909Z,-0.12
2022-10-21T01:52:05.634Z,-0.10
2022-10-21T01:55:06.869Z,-0.11
2022-10-21T01:57:41.410Z,-0.09
2022-10-21T02:00:10.574Z,-0.08
2022-10-21T02:02:44.362Z,-0.05
2022-10-21T02:05:22.347Z,-0.06
2022-10-21T02:07:50.867Z,-0.05
2022-10-21T02:10:20.390Z,-0.05
2022-10-21T02:12:52.591Z,-0.04
2022-10-21T02:15:23.770Z,-0.02
2022-10-21T02:18:00.052Z,-0.03
2022-10-21T02:20:33.554Z,-0.05
2022-10-21T02:23:03.463Z,-0.12
2022-10-21T02:25:34.824Z,-0.21
2022-10-21T02:28:04.442Z,-0.28
2022-10-21T02:30:43.675Z,-0.34
2022-10-21T02:33:24.346Z,-0.42
2022-10-21T02:36:17.357Z,-0.47
2022-10-21T02:38:52.003Z,-0.54
2022-10-21T02:41:25.719Z,-0.61
2022-10-21T02:44:00.955Z,-0.68
2022-10-21T02:46:38.038Z,-0.73
2022-10-21T02:49:06.479Z,-0.79
2022-10-21T02:51:35.808Z,-0.82
2022-10-21T02:54:04.080Z,-0.80
2022-10-21T02:56:32.194Z,-0.79
2022-10-21T02:59:00.127Z,-0.78
2022-10-21T03:01:28.513Z,-0.77
2022-10-21T03:03:56.967Z,-0.76
2022-10-21T03:06:25.175Z,-0.75
2022-10-21T03:08:53.370Z,-0.71
2022-10-21T03:11:21.803Z,-0.69
2022-10-21T03:13:50.152Z,-0.66
2022-10-21T03:18:46.723Z,-0.60
2022-10-21T03:21:15.023Z,-0.57
2022-10-21T03:23:43.462Z,-0.56
2022-10-21T03:26:11.688Z,-0.57
2022-10-21T03:28:39.832Z,-0.60
2022-10-21T03:31:08.024Z,-0.63
2022-10-21T03:33:36.108Z,-0.66
2022-10-21T03:36:05.362Z,-0.70
2022-10-21T03:38:33.417Z,-0.75
2022-10-21T03:41:02.386Z,-0.81
2022-10-21T03:43:30.894Z,-0.89
2022-10-21T03:45:58.904Z,-0.97
2022-10-21T03:48:27.461Z,-1.04
2022-10-21T03:50:57.218Z,-1.13
2022-10-21T03:53:42.230Z,-1.18
2022-10-21T03:56:12.370Z,-1.25
2022-10-21T03:58:41.693Z,-1.30
2022-10-21T04:01:14.667Z,-1.35
2022-10-21T04:03:43.136Z,-1.36
2022-10-21T04:06:11.294Z,-1.37
2022-10-21T04:08:40.010Z,-1.36
2022-10-21T04:11:08.204Z,-1.33
2022-10-21T04:13:36.691Z,-1.31
2022-10-21T04:16:07.865Z,-1.29
2022-10-21T04:18:36.229Z,-1.29
2022-10-21T04:21:05.178Z,-1.31
2022-10-21T04:23:33.383Z,-1.32
2022-10-21T04:26:02.952Z,-1.32
2022-10-21T04:28:32.998Z,-1.33
2022-10-21T04:31:01.279Z,-1.36
2022-10-21T04:33:29.437Z,-1.40
2022-10-21T04:35:59.259Z,-1.44
2022-10-21T04:38:28.259Z,-1.49
2022-10-21T04:40:58.781Z,-1.51
2022-10-21T04:43:29.016Z,-1.53
2022-10-21T04:45:57.219Z,-1.52
2022-10-21T04:48:25.741Z,-1.53
2022-10-21T04:50:55.230Z,-1.52
2022-10-21T04:53:23.657Z,-1.48
2022-10-21T04:55:53.526Z,-1.43
2022-10-21T04:58:22.610Z,-1.39
2022-10-21T05:00:51.783Z,-1.35
2022-10-21T05:03:20.653Z,-1.30
2022-10-21T05:05:52.992Z,-1.24
2022-10-21T05:08:21.458Z,-1.18
2022-10-21T05:10:50.365Z,-1.15
2022-10-21T05:13:18.674Z,-1.13
2022-10-21T05:15:46.908Z,-1.10
2022-10-21T05:18:15.010Z,-1.06
2022-10-21T05:20:43.189Z,-1.04
2022-10-21T05:23:11.297Z,-0.98
2022-10-21T05:25:39.217Z,-0.88
2022-10-21T05:28:07.274Z,-0.66
2022-10-21T05:30:35.662Z,-0.35
2022-10-21T05:33:04.327Z,-0.06
2022-10-21T05:35:32.755Z,0.14
2022-10-21T05:38:01.357Z,0.45
2022-10-21T05:40:29.691Z,0.79
2022-10-21T05:42:57.912Z,1.12
2022-10-21T05:45:27.148Z,1.40
2022-10-21T05:47:55.361Z,1.68
2022-10-21T05:50:23.550Z,1.82
2022-10-21T05:52:52.504Z,1.82
2022-10-21T05:55:22.889Z,1.92
2022-10-21T06:00:20.401Z,2.35
2022-10-21T06:02:48.793Z,2.68
2022-10-21T06:05:17.267Z,2.94
2022-10-21T06:07:45.669Z,3.13
2022-10-21T06:10:14.439Z,3.43
2022-10-21T06:12:44.013Z,3.73
2022-10-21T06:15:12.575Z,4.05
2022-10-21T06:17:41.140Z,4.32
2022-10-21T06:20:10.346Z,4.43
2022-10-21T06:22:38.982Z,4.60
2022-10-21T06:25:07.476Z,4.63
2022-10-21T06:27:36.204Z,4.67
2022-10-21T06:30:06.681Z,4.75
2022-10-21T06:32:35.837Z,4.95
2022-10-21T06:35:04.731Z,5.03
2022-10-21T06:37:33.501Z,5.13
2022-10-21T06:40:01.889Z,5.08
2022-10-21T06:42:30.519Z,5.19
2022-10-21T06:45:00.291Z,5.35
2022-10-21T06:47:28.951Z,5.55
2022-10-21T06:49:57.705Z,5.54
2022-10-21T06:54:54.419Z,4.95
2022-10-21T06:57:23.048Z,4.80
2022-10-21T06:59:51.951Z,4.66
2022-10-21T07:02:21.499Z,4.42
2022-10-21T07:04:52.731Z,4.48
2022-10-21T07:07:21.274Z,4.64
2022-10-21T07:09:49.582Z,4.65
2022-10-21T07:12:18.190Z,4.87
2022-10-21T07:14:47.532Z,5.11
2022-10-21T07:17:17.169Z,5.39
2022-10-21T07:19:45.790Z,5.53
2022-10-21T07:22:15.440Z,5.59
2022-10-21T07:24:44.515Z,5.61
2022-10-21T07:27:13.202Z,5.58
2022-10-21T07:29:41.758Z,5.29
2022-10-21T07:32:11.117Z,4.97
2022-10-21T07:34:40.263Z,4.61
2022-10-21T07:37:08.878Z,4.27
2022-10-21T07:39:37.256Z,3.93
2022-10-21T07:42:05.978Z,3.72
2022-10-21T07:44:35.085Z,3.59
2022-10-21T07:47:04.549Z,3.50
2022-10-21T07:49:33.510Z,3.55
2022-10-21T07:52:02.464Z,3.71
2022-10-21T07:54:30.762Z,3.80
2022-10-21T07:56:59.143Z,3.83
2022-10-21T07:59:27.549Z,3.85
2022-10-21T08:01:56.041Z,3.92
2022-10-21T08:04:30.089Z,3.98
2022-10-21T08:06:59.628Z,4.04
2022-10-21T08:09:28.773Z,4.12
2022-10-21T08:11:58.231Z,4.26
2022-10-21T08:14:26.826Z,4.39
2022-10-21T08:16:55.676Z,4.47
2022-10-21T08:19:30.035Z,4.56
2022-10-21T08:21:59.695Z,4.73
2022-10-21T08:24:28.519Z,4.90
2022-10-21T08:26:57.018Z,5.05
2022-10-21T08:29:27.388Z,5.18
2022-10-21T08:31:56.450Z,5.35
2022-10-21T08:34:24.742Z,5.51
2022-10-21T08:36:56.608Z,5.67
2022-10-21T08:39:25.681Z,5.82
2022-10-21T08:41:56.914Z,6.01
2022-10-21T08:44:37.858Z,6.18
2022-10-21T08:47:20.875Z,6.38
2022-10-21T08:50:17.213Z,6.67
2022-10-21T08:52:49.973Z,6.92
2022-10-21T08:55:24.398Z,7.10
2022-10-21T08:57:57.149Z,7.28
2022-10-21T09:00:33.056Z,7.45
2022-10-21T09:03:25.961Z,7.65
2022-10-21T09:06:18.274Z,7.86
2022-10-21T09:08:57.448Z,8.02
2022-10-21T09:11:42.216Z,8.14
2022-10-21T09:14:33.280Z,8.26
2022-10-21T09:17:14.048Z,8.40
2022-10-21T09:19:45.296Z,8.53
2022-10-21T09:22:34.324Z,8.64
2022-10-21T09:25:37.187Z,8.77
2022-10-21T09:28:16.724Z,8.92
2022-10-21T09:30:45.996Z,9.06
2022-10-21T09:33:37.272Z,9.22
2022-10-21T09:36:23.559Z,9.33
2022-10-21T09:39:03.832Z,9.42
2022-10-21T09:41:59.208Z,9.52
2022-10-21T09:44:30.325Z,9.64
2022-10-21T09:46:59.062Z,9.74
2022-10-21T09:50:06.425Z,9.89
2022-10-21T09:52:26.472Z,10.09
2022-10-21T09:54:57.527Z,10.27
2022-10-21T09:57:47.945Z,10.41
2022-10-21T10:00:16.907Z,10.55
2022-10-21T10:02:46.906Z,10.62
2022-10-21T10:05:49.237Z,10.66
2022-10-21T10:08:28.759Z,10.74
2022-10-21T10:11:11.751Z,10.80
2022-10-21T10:13:42.762Z,10.83
2022-10-21T10:16:19.756Z,10.87
2022-10-21T10:18:51.596Z,10.87
2022-10-21T10:21:22.697Z,10.90
2022-10-21T10:23:54.382Z,10.94
2022-10-21T10:26:29.187Z,11.00
2022-10-21T10:29:27.328Z,11.01
2022-10-21T10:32:00.659Z,11.06
2022-10-21T10:34:49.649Z,11.13
2022-10-21T10:37:24.725Z,11.16
2022-10-21T10:39:57.448Z,11.18
2022-10-21T10:42:33.554Z,11.20
2022-10-21T10:45:15.085Z,11.26
2022-10-21T10:47:49.860Z,11.31
2022-10-21T10:50:44.464Z,11.35
2022-10-21T10:53:38.678Z,11.41
2022-10-21T10:56:29.203Z,11.47
2022-10-21T10:59:24.386Z,11.52
2022-10-21T11:02:26.625Z,11.57
2022-10-21T11:05:01.024Z,11.64
2022-10-21T11:07:40.282Z,11.72
2022-10-21T11:10:35.403Z,11.80
2022-10-21T11:13:15.030Z,11.88
2022-10-21T11:15:51.537Z,11.97
2022-10-21T11:18:59.826Z,12.05
2022-10-21T11:21:40.897Z,12.12
2022-10-21T11:24:28.822Z,12.14
2022-10-21T11:27:18.213Z,12.16
2022-10-21T11:30:07.120Z,12.14
2022-10-21T11:32:50.223Z,12.15
2022-10-21T11:35:56.731Z,12.18
2022-10-21T11:38:51.608Z,12.18
2022-10-21T11:41:46.513Z,12.23
2022-10-21T11:44:34.986Z,12.26
2022-10-21T11:47:06.367Z,12.31
2022-10-21T11:50:22.785Z,12.37
2022-10-21T11:53:17.203Z,12.38
2022-10-21T11:56:00.302Z,12.38
2022-10-21T11:59:04.830Z,12.42
2022-10-21T12:01:42.630Z,12.43
2022-10-21T12:04:27.596Z,12.46
2022-10-21T12:07:08.940Z,12.55
2022-10-21T12:09:49.448Z,12.60
2022-10-21T12:12:42.942Z,12.63
2022-10-21T12:15:19.215Z,12.68
2022-10-21T12:17:49.988Z,12.75
2022-10-21T12:20:24.169Z,12.82
2022-10-21T12:23:03.898Z,12.87
2022-10-21T12:25:43.455Z,12.91
2022-10-21T12:28:42.728Z,12.94
2022-10-21T12:31:22.072Z,12.96
2022-10-21T12:33:51.486Z,12.98
2022-10-21T12:36:22.690Z,13.01
2022-10-21T12:38:58.543Z,13.04
2022-10-21T12:41:38.996Z,13.04
2022-10-21T12:44:18.126Z,13.01
2022-10-21T12:46:52.877Z,12.99
2022-10-21T12:49:26.461Z,13.01
2022-10-21T12:51:57.481Z,13.07
2022-10-21T12:54:30.724Z,13.11
2022-10-21T12:57:06.853Z,13.14
2022-10-21T12:59:39.001Z,13.16
2022-10-21T13:02:10.289Z,13.18
2022-10-21T13:04:38.481Z,13.18
2022-10-21T13:07:16.724Z,13.18
2022-10-21T13:09:51.709Z,13.18
2022-10-21T13:12:24.015Z,13.17
2022-10-21T13:15:02.193Z,13.16
2022-10-21T13:17:33.557Z,13.16
2022-10-21T13:20:19.813Z,13.17
2022-10-21T13:23:01.952Z,13.18
2022-10-21T13:25:36.368Z,13.20
2022-10-21T13:28:07.716Z,13.22
2022-10-21T13:30:39.061Z,13.26
2022-10-21T13:33:15.769Z,13.28
2022-10-21T13:35:47.667Z,13.30
2022-10-21T13:38:21.821Z,13.33
2022-10-21T13:41:25.602Z,13.36
2022-10-21T13:43:58.280Z,13.36
2022-10-21T13:46:31.909Z,13.37
2022-10-21T13:49:01.005Z,13.38
2022-10-21T13:51:33.960Z,13.38
2022-10-21T13:54:15.164Z,13.38
2022-10-21T13:56:44.149Z,13.37
2022-10-21T13:59:35.085Z,13.36
2022-10-21T14:02:05.334Z,13.31
2022-10-21T14:04:39.755Z,13.24
2022-10-21T14:07:19.616Z,13.19
2022-10-21T14:09:52.294Z,13.14
2022-10-21T14:12:42.084Z,13.09
2022-10-21T14:15:22.170Z,13.03
2022-10-21T14:17:58.474Z,12.96
2022-10-21T14:20:36.827Z,12.90
2022-10-21T14:23:08.820Z,12.84
2022-10-21T14:25:37.624Z,12.77
2022-10-21T14:28:06.053Z,12.72
2022-10-21T14:30:37.461Z,12.66
2022-10-21T14:33:08.798Z,12.61
2022-10-21T14:35:37.401Z,12.56
2022-10-21T14:38:25.783Z,12.53
2022-10-21T14:41:01.255Z,12.49
2022-10-21T14:43:38.122Z,12.43
2022-10-21T14:46:10.588Z,12.35
2022-10-21T14:48:55.244Z,12.28
2022-10-21T14:51:23.773Z,12.19
2022-10-21T14:54:02.266Z,12.11
2022-10-21T14:56:34.283Z,11.98
2022-10-21T14:59:39.538Z,11.86
2022-10-21T15:02:21.148Z,11.69
2022-10-21T15:04:55.198Z,11.57
2022-10-21T15:07:37.408Z,11.49
2022-10-21T15:10:06.264Z,11.38
2022-10-21T15:12:43.535Z,11.27
2022-10-21T15:15:40.478Z,11.15
2022-10-21T15:18:20.257Z,11.04
2022-10-21T15:20:57.150Z,10.93
2022-10-21T15:23:34.698Z,10.81
2022-10-21T15:26:19.771Z,10.67
2022-10-21T15:28:48.731Z,10.52
2022-10-21T15:31:24.315Z,10.41
2022-10-21T15:33:54.692Z,10.32
2022-10-21T15:36:24.739Z,10.21
2022-10-21T15:38:55.059Z,10.08
2022-10-21T15:41:29.649Z,9.97
2022-10-21T15:44:01.781Z,9.84
2022-10-21T15:46:34.423Z,9.72
2022-10-21T15:49:15.842Z,9.59
2022-10-21T15:51:44.570Z,9.46
2022-10-21T15:54:13.642Z,9.34
2022-10-21T15:56:43.960Z,9.29
2022-10-21T15:59:33.834Z,9.24
2022-10-21T16:02:02.705Z,9.17
2022-10-21T16:04:31.147Z,9.09
2022-10-21T16:06:59.431Z,9.00
2022-10-21T16:09:29.739Z,8.93
2022-10-21T16:12:00.787Z,8.86
2022-10-21T16:14:31.078Z,8.80
2022-10-21T16:17:00.418Z,8.74
2022-10-21T16:19:29.537Z,8.66
2022-10-21T16:21:57.573Z,8.59
2022-10-21T16:24:27.047Z,8.50
2022-10-21T16:26:55.155Z,8.42
2022-10-21T16:29:25.486Z,8.35
2022-10-21T16:31:54.269Z,8.33
2022-10-21T16:34:22.383Z,8.31
2022-10-21T16:36:51.308Z,8.26
2022-10-21T16:39:22.566Z,8.22
2022-10-21T16:41:51.889Z,8.19
2022-10-21T16:44:20.752Z,8.14
2022-10-21T16:46:55.167Z,8.10
2022-10-21T16:49:26.960Z,8.05
2022-10-21T16:51:55.338Z,8.01
2022-10-21T16:54:24.124Z,8.00
2022-10-21T16:56:55.116Z,8.00
2022-10-21T16:59:23.967Z,7.99
2022-10-21T17:01:52.413Z,7.97
2022-10-21T17:04:20.902Z,7.92
2022-10-21T17:06:49.205Z,7.89
2022-10-21T17:09:17.401Z,7.85
2022-10-21T17:11:46.694Z,7.82
2022-10-21T17:14:18.801Z,7.86
2022-10-21T17:16:47.478Z,7.91
2022-10-21T17:19:16.115Z,7.95
2022-10-21T17:21:44.756Z,7.98
2022-10-21T17:24:18.234Z,8.01
2022-10-21T17:26:46.480Z,8.04
2022-10-21T17:29:14.504Z,8.11
2022-10-21T17:31:43.864Z,8.16
2022-10-21T17:34:26.984Z,8.24
2022-10-21T17:36:55.518Z,8.30
2022-10-21T17:39:24.393Z,8.34
2022-10-21T17:41:53.416Z,8.36
2022-10-21T17:44:21.525Z,8.36
2022-10-21T17:46:54.479Z,8.34
2022-10-21T17:49:24.278Z,8.32
2022-10-21T17:51:53.462Z,8.28
2022-10-21T17:54:26.004Z,8.25
2022-10-21T17:56:57.611Z,8.22
2022-10-21T17:59:26.831Z,8.20
2022-10-21T18:01:55.044Z,8.18
2022-10-21T18:04:23.353Z,8.18
2022-10-21T18:06:51.745Z,8.18
2022-10-21T18:09:20.434Z,8.19
2022-10-21T18:11:48.992Z,8.19
2022-10-21T18:14:17.193Z,8.19
2022-10-21T18:16:45.939Z,8.18
2022-10-21T18:19:14.953Z,8.17
2022-10-21T18:21:43.232Z,8.17
2022-10-21T18:24:12.730Z,8.16
2022-10-21T18:26:41.523Z,8.16
2022-10-21T18:29:10.488Z,8.16
2022-10-21T18:31:39.464Z,8.15
2022-10-21T18:34:09.603Z,8.15
2022-10-21T18:36:38.704Z,8.15
2022-10-21T18:39:07.219Z,8.16
2022-10-21T18:41:36.880Z,8.16
2022-10-21T18:44:10.911Z,8.21
2022-10-21T18:46:41.872Z,8.27
2022-10-21T18:49:15.529Z,8.33
2022-10-21T18:51:43.912Z,8.38
2022-10-21T18:54:12.104Z,8.43
2022-10-21T18:56:41.275Z,8.49
2022-10-21T18:59:10.135Z,8.56
2022-10-21T19:01:39.287Z,8.61
2022-10-21T19:04:08.411Z,8.65
2022-10-21T19:06:38.238Z,8.69
2022-10-21T19:09:08.886Z,8.71
2022-10-21T19:11:37.600Z,8.73
2022-10-21T19:14:09.725Z,8.73
2022-10-21T19:16:41.508Z,8.72
2022-10-21T19:19:10.022Z,8.70
2022-10-21T19:21:38.705Z,8.67
2022-10-21T19:24:07.411Z,8.66
2022-10-21T19:26:37.974Z,8.65
2022-10-21T19:29:08.309Z,8.63
2022-10-21T19:31:38.592Z,8.61
2022-10-21T19:34:08.163Z,8.58
2022-10-21T19:36:36.734Z,8.55
2022-10-21T19:39:05.287Z,8.51
2022-10-21T19:41:33.514Z,8.48
2022-10-21T19:44:02.559Z,8.46
2022-10-21T19:46:33.019Z,8.43
2022-10-21T19:49:02.827Z,8.42
2022-10-21T19:51:31.469Z,8.41
2022-10-21T19:54:00.050Z,8.40
2022-10-21T19:56:31.965Z,8.40
2022-10-21T19:59:05.331Z,8.39
2022-10-21T20:01:34.372Z,8.38
2022-10-21T20:04:03.581Z,8.37
2022-10-21T20:06:35.234Z,8.36
2022-10-21T20:09:09.772Z,8.34
2022-10-21T20:11:39.171Z,8.32
2022-10-21T20:14:08.074Z,8.29
2022-10-21T20:16:39.272Z,8.26
2022-10-21T20:19:08.875Z,8.24
2022-10-21T20:21:38.762Z,8.24
2022-10-21T20:24:07.671Z,8.25
2022-10-21T20:26:35.695Z,8.28
2022-10-21T20:29:04.122Z,8.32
2022-10-21T20:31:32.169Z,8.34
2022-10-21T20:34:00.341Z,8.38
2022-10-21T20:36:33.101Z,8.40
2022-10-21T20:39:03.073Z,8.43
2022-10-21T20:41:34.965Z,8.45
2022-10-21T20:44:06.195Z,8.48
2022-10-21T20:46:37.582Z,8.50
2022-10-21T20:49:07.394Z,8.51
2022-10-21T20:51:37.239Z,8.51
2022-10-21T20:54:14.546Z,8.50
2022-10-21T20:56:43.640Z,8.49
2022-10-21T20:59:17.124Z,8.48
2022-10-21T21:01:47.384Z,8.46
2022-10-21T21:04:17.629Z,8.44
2022-10-21T21:06:48.466Z,8.43
2022-10-21T21:12:09.038Z,8.40
2022-10-21T21:14:37.321Z,8.39
2022-10-21T21:17:06.129Z,8.38
2022-10-21T21:19:34.485Z,8.39
2022-10-21T21:22:05.762Z,8.39
2022-10-21T21:24:34.136Z,8.38
2022-10-21T21:27:02.474Z,8.39
2022-10-21T21:29:31.233Z,8.43
2022-10-21T21:31:59.364Z,8.46
2022-10-21T21:34:27.491Z,8.50
2022-10-21T21:36:55.696Z,8.55
2022-10-21T21:39:23.701Z,8.61
2022-10-21T21:41:51.696Z,8.66
2022-10-21T21:44:19.971Z,8.73
2022-10-21T21:46:48.265Z,8.79
2022-10-21T21:49:16.447Z,8.83
2022-10-21T21:51:44.975Z,8.86
2022-10-21T21:54:14.285Z,8.86
2022-10-21T21:56:42.515Z,8.85
2022-10-21T21:59:10.996Z,8.80
2022-10-21T22:01:39.111Z,8.76
2022-10-21T22:04:08.037Z,8.72
2022-10-21T22:06:38.058Z,8.68
2022-10-21T22:09:10.329Z,8.64
2022-10-21T22:11:39.510Z,8.58
2022-10-21T22:14:07.903Z,8.53
2022-10-21T22:16:37.083Z,8.48
2022-10-21T22:19:06.819Z,8.43
2022-10-21T22:21:35.430Z,8.39
2022-10-21T22:24:03.983Z,8.35
2022-10-21T22:26:35.387Z,8.33
2022-10-21T22:29:03.410Z,8.29
2022-10-21T22:31:32.269Z,8.25
2022-10-21T22:34:01.498Z,8.22
2022-10-21T22:36:30.133Z,8.18
2022-10-21T22:39:00.750Z,8.14
2022-10-21T22:41:28.853Z,8.08
2022-10-21T22:43:57.553Z,8.02
2022-10-21T22:46:41.201Z,7.95
2022-10-21T22:49:09.776Z,7.89
2022-10-21T22:51:37.846Z,7.84
2022-10-21T22:54:15.139Z,7.83
2022-10-21T22:56:52.480Z,7.81
2022-10-21T22:59:20.773Z,7.79
2022-10-21T23:01:48.994Z,7.78
2022-10-21T23:04:17.202Z,7.76
2022-10-21T23:06:45.238Z,7.76
2022-10-21T23:09:13.378Z,7.75
2022-10-21T23:11:41.851Z,7.73
2022-10-21T23:14:09.856Z,7.73
2022-10-21T23:16:38.201Z,7.74
2022-10-21T23:19:07.811Z,7.73
2022-10-21T23:21:36.595Z,7.72
2022-10-21T23:24:05.944Z,7.69
2022-10-21T23:26:35.911Z,7.66
2022-10-21T23:29:04.498Z,7.64
2022-10-21T23:31:33.120Z,7.61
2022-10-21T23:34:01.387Z,7.59
2022-10-21T23:36:29.958Z,7.57
2022-10-21T23:38:58.400Z,7.54
2022-10-21T23:41:27.246Z,7.51
2022-10-21T23:43:56.103Z,7.48
2022-10-21T23:46:24.403Z,7.44
2022-10-21T23:48:52.847Z,7.40
2022-10-21T23:51:21.176Z,7.37
2022-10-21T23:53:49.384Z,7.34
2022-10-21T23:56:17.550Z,7.29
2022-10-21T23:58:45.844Z,7.26
